createdAt,value
2019-05-05T00:03:25.777Z,12
2019-05-05T00:14:09.843Z,12
2019-05-05T00:24:54.643Z,11
2019-05-05T00:35:38.616Z,10
2019-05-05T00:46:16.731Z,10
2019-05-05T00:57:00.730Z,9
2019-05-05T01:07:44.409Z,9
2019-05-05T01:18:24.549Z,8
2019-05-05T01:29:05.312Z,8
2019-05-05T01:39:46.639Z,8
2019-05-05T01:50:29.828Z,9
2019-05-05T02:01:15.281Z,9
2019-05-05T02:11:59.740Z,9
2019-05-05T02:22:44.560Z,9
2019-05-05T02:33:28.499Z,9
2019-05-05T02:44:10.921Z,9
2019-05-05T02:54:53.849Z,10
2019-05-05T03:05:36.949Z,10
2019-05-05T03:16:20.552Z,10
2019-05-05T03:27:03.897Z,10
2019-05-05T03:37:45.532Z,10
2019-05-05T03:48:26.975Z,11
2019-05-05T03:59:10.853Z,10
2019-05-05T04:09:54.690Z,11
2019-05-05T04:20:38.011Z,13
2019-05-05T04:31:21.605Z,13
2019-05-05T04:41:59.717Z,13
2019-05-05T04:52:43.633Z,13
2019-05-05T05:03:28.832Z,11
2019-05-05T05:14:14.433Z,12
2019-05-05T05:24:57.702Z,11
2019-05-05T05:35:44.129Z,11
2019-05-05T05:46:24.103Z,11
2019-05-05T05:57:07.687Z,11
2019-05-05T06:07:51.640Z,10
2019-05-05T06:18:34.567Z,10
2019-05-05T06:29:15.004Z,10
2019-05-05T06:39:58.744Z,10
2019-05-05T06:50:43.803Z,9
2019-05-05T07:01:25.604Z,10
2019-05-05T07:12:04.521Z,11
2019-05-05T07:22:58.869Z,12
2019-05-05T07:33:34.562Z,10
2019-05-05T07:44:28.475Z,11
2019-05-05T07:54:58.424Z,14
2019-05-05T08:05:40.775Z,16
2019-05-05T08:16:24.229Z,19
2019-05-05T08:27:06.810Z,23
2019-05-05T08:37:49.895Z,24
2019-05-05T08:48:28.942Z,30
2019-05-05T08:59:14.391Z,23
2019-05-05T09:09:57.011Z,27
2019-05-05T09:20:39.879Z,26
2019-05-05T09:31:23.951Z,24
2019-05-05T09:42:06.900Z,22
2019-05-05T09:52:51.197Z,20
2019-05-05T10:03:30.028Z,18
2019-05-05T10:14:10.168Z,17
2019-05-05T10:24:56.792Z,14
2019-05-05T10:35:37.209Z,13
2019-05-05T10:46:20.913Z,12
2019-05-05T10:57:03.600Z,13
2019-05-05T11:07:47.033Z,7
2019-05-05T11:18:30.234Z,8
2019-05-05T11:29:13.858Z,8
2019-05-05T11:39:59.200Z,7
2019-05-05T11:50:43.686Z,8
2019-05-05T12:01:28.169Z,9
2019-05-05T12:12:11.177Z,7
2019-05-05T12:22:48.603Z,7
2019-05-05T12:33:33.630Z,6
2019-05-05T12:44:17.045Z,6
2019-05-05T12:55:04.936Z,6
2019-05-05T13:05:46.928Z,6
2019-05-05T13:16:27.114Z,8
2019-05-05T13:27:19.159Z,6
2019-05-05T13:37:55.109Z,6
2019-05-05T13:48:35.333Z,6
2019-05-05T13:59:20.199Z,7
2019-05-05T14:10:04.330Z,8
2019-05-05T14:20:38.304Z,6
2019-05-05T14:31:21.300Z,6
2019-05-05T14:42:04.504Z,5
2019-05-05T14:52:44.155Z,7
2019-05-05T15:03:28.417Z,7
2019-05-05T15:14:10.321Z,6
2019-05-05T15:24:53.748Z,5
2019-05-05T15:35:37.510Z,5
2019-05-05T15:46:19.015Z,5
2019-05-05T15:57:06.320Z,5
2019-05-05T16:07:40.559Z,6
2019-05-05T16:18:21.420Z,7
2019-05-05T16:29:05.338Z,8
2019-05-05T16:39:46.422Z,7
2019-05-05T16:50:28.395Z,6
2019-05-05T17:01:11.362Z,5
2019-05-05T17:11:55.227Z,5
2019-05-05T17:22:36.232Z,6
2019-05-05T17:33:19.455Z,6
2019-05-05T17:43:57.722Z,6
2019-05-05T17:54:41.279Z,6
2019-05-05T18:05:25.291Z,6
2019-05-05T18:16:06.462Z,7
2019-05-05T18:26:49.566Z,6
2019-05-05T18:37:30.269Z,6
2019-05-05T18:48:13.929Z,6
2019-05-05T18:58:56.695Z,7
2019-05-05T19:09:51.174Z,7
2019-05-05T19:20:24.460Z,7
2019-05-05T19:31:04.341Z,6
2019-05-05T19:41:38.673Z,7
2019-05-05T19:52:21.489Z,7
2019-05-05T20:03:05.679Z,7
2019-05-05T20:14:04.728Z,7
2019-05-05T20:24:33.526Z,8
2019-05-05T20:35:14.779Z,8
2019-05-05T20:45:58.426Z,7
2019-05-05T20:56:39.634Z,9
2019-05-05T21:07:26.234Z,8
2019-05-05T21:18:05.414Z,8
2019-05-05T21:28:48.390Z,9
2019-05-05T21:39:25.287Z,8
2019-05-05T21:50:09.279Z,10
2019-05-05T22:00:54.801Z,9
2019-05-05T22:11:32.717Z,9
2019-05-05T22:54:07.732Z,8
2019-05-05T23:04:49.331Z,8
2019-05-05T23:15:34.263Z,8
2019-05-05T23:26:15.446Z,8
2019-05-05T23:36:57.622Z,9
2019-05-05T23:47:40.428Z,9
2019-05-05T23:58:23.860Z,10
